createdAt,value
2023-01-13T00:01:06.373Z,97654.75
2023-01-13T00:03:35.863Z,97644.00
2023-01-13T00:06:04.681Z,97639.78
2023-01-13T00:08:32.754Z,97628.97
2023-01-13T00:11:00.544Z,97637.91
2023-01-13T00:13:28.436Z,97644.06
2023-01-13T00:15:57.228Z,97638.75
2023-01-13T00:18:25.281Z,97631.69
2023-01-13T00:20:59.960Z,97631.69
2023-01-13T00:23:29.098Z,97634.78
2023-01-13T00:25:57.158Z,97626.25
2023-01-13T00:28:24.994Z,97619.78
2023-01-13T00:30:52.530Z,97621.75
2023-01-13T00:33:20.315Z,97625.03
2023-01-13T00:35:55.623Z,97626.72
2023-01-13T00:38:24.797Z,97602.94
2023-01-13T00:40:56.385Z,97598.84
2023-01-13T00:43:25.409Z,97600.97
2023-01-13T00:45:53.279Z,97584.88
2023-01-13T00:48:22.747Z,97587.38
2023-01-13T00:50:55.674Z,97589.09
2023-01-13T00:53:25.316Z,97578.31
2023-01-13T00:55:59.307Z,97582.81
2023-01-13T00:58:29.315Z,97579.38
2023-01-13T01:00:59.983Z,97583.34
2023-01-13T01:03:28.167Z,97581.81
2023-01-13T01:05:55.811Z,97579.16
2023-01-13T01:08:26.280Z,97582.00
2023-01-13T01:11:01.218Z,97569.31
2023-01-13T01:13:29.425Z,97581.69
2023-01-13T01:15:57.172Z,97574.38
2023-01-13T01:18:25.853Z,97580.47
2023-01-13T01:20:53.326Z,97578.94
2023-01-13T01:23:20.926Z,97581.13
2023-01-13T01:25:49.823Z,97590.91
2023-01-13T01:28:17.539Z,97584.13
2023-01-13T01:30:45.038Z,97579.50
2023-01-13T01:33:12.787Z,97578.94
2023-01-13T01:35:40.957Z,97577.66
2023-01-13T01:38:08.543Z,97583.06
2023-01-13T01:40:36.159Z,97586.13
2023-01-13T01:43:14.901Z,97575.88
2023-01-13T01:45:42.620Z,97582.44
2023-01-13T01:48:11.738Z,97584.47
2023-01-13T01:50:40.554Z,97594.31
2023-01-13T01:53:14.708Z,97588.63
2023-01-13T01:55:43.546Z,97588.63
2023-01-13T01:58:18.106Z,97576.53
2023-01-13T02:00:45.724Z,97581.09
2023-01-13T02:03:16.242Z,97577.25
2023-01-13T02:05:44.179Z,97573.94
2023-01-13T02:08:14.260Z,97568.66
2023-01-13T02:10:49.872Z,97567.44
2023-01-13T02:13:22.605Z,97556.84
2023-01-13T02:15:59.017Z,97538.56
2023-01-13T02:18:42.480Z,97544.97
2023-01-13T02:21:41.907Z,97542.56
2023-01-13T02:24:44.105Z,97545.44
2023-01-13T02:27:52.612Z,97536.59
2023-01-13T02:30:39.350Z,97527.44
2023-01-13T02:33:36.526Z,97526.50
2023-01-13T02:36:12.688Z,97515.31
2023-01-13T02:38:54.349Z,97519.00
2023-01-13T02:41:28.171Z,97520.41
2023-01-13T02:44:02.649Z,97517.47
2023-01-13T02:46:39.218Z,97516.75
2023-01-13T02:49:14.222Z,97519.94
2023-01-13T02:51:45.827Z,97509.47
2023-01-13T02:54:20.389Z,97509.94
2023-01-13T02:56:50.681Z,97506.28
2023-01-13T02:59:22.165Z,97506.63
2023-01-13T03:01:55.344Z,97512.00
2023-01-13T03:04:46.249Z,97509.09
2023-01-13T03:07:37.243Z,97506.66
2023-01-13T03:10:17.762Z,97510.94
2023-01-13T03:12:56.407Z,97503.00
2023-01-13T03:15:33.627Z,97503.25
2023-01-13T03:18:13.917Z,97508.56
2023-01-13T03:20:49.873Z,97517.81
2023-01-13T03:23:28.720Z,97519.25
2023-01-13T03:26:07.676Z,97516.94
2023-01-13T03:28:45.155Z,97512.00
2023-01-13T03:31:19.972Z,97507.09
2023-01-13T03:33:57.980Z,97517.78
2023-01-13T03:36:29.134Z,97514.81
2023-01-13T03:39:00.983Z,97517.78
2023-01-13T03:41:35.379Z,97513.91
2023-01-13T03:44:11.450Z,97518.59
2023-01-13T03:46:50.398Z,97518.59
2023-01-13T03:49:24.841Z,97522.13
2023-01-13T03:51:58.908Z,97535.31
2023-01-13T03:54:30.951Z,97528.88
2023-01-13T03:57:03.887Z,97533.94
2023-01-13T03:59:36.731Z,97540.63
2023-01-13T04:02:10.793Z,97534.19
2023-01-13T04:04:48.516Z,97545.34
2023-01-13T04:07:28.234Z,97541.06
2023-01-13T04:10:00.340Z,97544.50
2023-01-13T04:12:32.062Z,97559.66
2023-01-13T04:14:59.731Z,97574.72
2023-01-13T04:17:27.306Z,97569.53
2023-01-13T04:19:56.157Z,97561.31
2023-01-13T04:22:23.699Z,97568.75
2023-01-13T04:24:51.262Z,97564.69
2023-01-13T04:27:19.020Z,97571.66
2023-01-13T04:29:46.551Z,97582.44
2023-01-13T04:32:14.139Z,97580.59
2023-01-13T04:34:41.857Z,97585.72
2023-01-13T04:37:10.788Z,97576.69
2023-01-13T04:39:38.630Z,97579.78
2023-01-13T04:42:06.162Z,97576.59
2023-01-13T04:44:33.687Z,97583.59
2023-01-13T04:47:02.183Z,97583.00
2023-01-13T04:49:30.081Z,97586.00
2023-01-13T04:51:57.600Z,97592.94
2023-01-13T04:54:26.480Z,97593.63
2023-01-13T04:56:54.242Z,97593.53
2023-01-13T04:59:21.738Z,97599.91
2023-01-13T05:01:49.480Z,97601.97
2023-01-13T05:04:17.132Z,97593.63
2023-01-13T05:06:44.675Z,97601.59
2023-01-13T05:09:12.423Z,97606.13
2023-01-13T05:11:41.341Z,97607.25
2023-01-13T05:14:09.439Z,97602.91
2023-01-13T05:16:37.356Z,97606.94
2023-01-13T05:19:04.940Z,97595.50
2023-01-13T05:21:32.471Z,97599.47
2023-01-13T05:24:01.243Z,97608.06
2023-01-13T05:26:28.747Z,97606.56
2023-01-13T05:28:57.605Z,97610.88
2023-01-13T05:31:25.157Z,97606.03
2023-01-13T05:33:52.697Z,97608.31
2023-01-13T05:36:20.434Z,97601.25
2023-01-13T05:38:47.969Z,97591.31
2023-01-13T05:41:15.473Z,97594.22
2023-01-13T05:43:43.037Z,97593.69
2023-01-13T05:46:12.326Z,97586.59
2023-01-13T05:48:42.250Z,97593.38
2023-01-13T05:51:11.936Z,97596.38
2023-01-13T05:53:39.660Z,97604.72
2023-01-13T05:56:09.088Z,97604.97
2023-01-13T05:58:36.940Z,97601.09
2023-01-13T06:01:07.645Z,97594.16
2023-01-13T06:03:38.002Z,97602.56
2023-01-13T06:06:05.789Z,97607.53
2023-01-13T06:08:33.411Z,97597.50
2023-01-13T06:11:01.419Z,97590.38
2023-01-13T06:13:28.937Z,97596.50
2023-01-13T06:15:58.011Z,97595.97
2023-01-13T06:18:26.996Z,97597.16
2023-01-13T06:20:56.192Z,97592.69
2023-01-13T06:23:23.927Z,97588.50
2023-01-13T06:26:00.486Z,97590.63
2023-01-13T06:28:28.031Z,97593.09
2023-01-13T06:31:00.187Z,97593.63
2023-01-13T06:33:33.348Z,97589.44
2023-01-13T06:36:10.024Z,97598.41
2023-01-13T06:38:44.176Z,97595.84
2023-01-13T06:41:12.124Z,97583.59
2023-01-13T06:43:40.224Z,97591.06
2023-01-13T06:46:08.103Z,97602.31
2023-01-13T06:48:35.925Z,97597.03
2023-01-13T06:51:05.251Z,97609.13
2023-01-13T06:53:32.821Z,97614.13
2023-01-13T06:56:00.577Z,97618.00
2023-01-13T06:58:28.063Z,97618.63
2023-01-13T07:01:00.316Z,97622.47
2023-01-13T07:03:28.151Z,97622.72
2023-01-13T07:05:57.273Z,97634.53
2023-01-13T07:08:26.191Z,97640.81
2023-01-13T07:10:53.782Z,97637.91
2023-01-13T07:13:21.476Z,97660.03
2023-01-13T07:15:54.592Z,97655.16
2023-01-13T07:18:22.275Z,97661.91
2023-01-13T07:20:53.868Z,97658.72
2023-01-13T07:23:21.476Z,97672.63
2023-01-13T07:25:50.985Z,97663.34
2023-01-13T07:28:18.490Z,97673.91
2023-01-13T07:30:46.053Z,97677.28
2023-01-13T07:33:13.547Z,97671.31
2023-01-13T07:35:41.893Z,97662.19
2023-01-13T07:38:09.665Z,97669.81
2023-01-13T07:40:39.887Z,97672.72
2023-01-13T07:43:12.309Z,97667.19
2023-01-13T07:45:40.175Z,97668.31
2023-01-13T07:48:07.894Z,97670.59
2023-01-13T07:50:35.730Z,97673.38
2023-01-13T07:53:04.083Z,97677.16
2023-01-13T07:55:31.630Z,97693.63
2023-01-13T07:57:59.154Z,97682.16
2023-01-13T08:00:29.129Z,97690.94
2023-01-13T08:02:59.931Z,97695.06
2023-01-13T08:05:27.645Z,97690.09
2023-01-13T08:07:55.289Z,97679.63
2023-01-13T08:10:23.142Z,97691.13
2023-01-13T08:12:54.831Z,97687.13
2023-01-13T08:15:24.750Z,97696.19
2023-01-13T08:17:54.885Z,97694.38
2023-01-13T08:20:22.531Z,97693.22
2023-01-13T08:22:50.073Z,97689.63
2023-01-13T08:25:18.457Z,97690.78
2023-01-13T08:27:48.209Z,97688.69
2023-01-13T08:30:16.688Z,97678.50
2023-01-13T08:32:45.588Z,97690.06
2023-01-13T08:35:15.439Z,97699.88
2023-01-13T08:37:44.032Z,97704.34
2023-01-13T08:40:13.884Z,97701.47
2023-01-13T08:42:41.599Z,97700.69
2023-01-13T08:45:10.620Z,97706.03
2023-01-13T08:47:38.376Z,97717.16
2023-01-13T08:50:07.805Z,97724.66
2023-01-13T08:52:40.065Z,97728.16
2023-01-13T08:55:08.836Z,97732.81
2023-01-13T08:57:36.440Z,97739.84
2023-01-13T09:00:06.234Z,97742.75
2023-01-13T09:02:34.042Z,97763.34
2023-01-13T09:05:01.964Z,97759.09
2023-01-13T09:07:29.670Z,97761.19
2023-01-13T09:09:58.554Z,97756.91
2023-01-13T09:12:26.081Z,97765.84
2023-01-13T09:14:53.627Z,97765.72
2023-01-13T09:17:21.761Z,97774.91
2023-01-13T09:19:49.463Z,97776.19
2023-01-13T09:22:19.512Z,97779.56
2023-01-13T09:24:47.086Z,97779.13
2023-01-13T09:27:15.943Z,97770.13
2023-01-13T09:29:43.486Z,97766.94
2023-01-13T09:32:11.621Z,97767.88
2023-01-13T09:34:39.523Z,97761.38
2023-01-13T09:37:08.066Z,97740.75
2023-01-13T09:39:36.378Z,97754.13
2023-01-13T09:42:15.711Z,97743.16
2023-01-13T09:44:52.783Z,97761.81
2023-01-13T09:47:28.892Z,97771.31
2023-01-13T09:50:08.184Z,97775.75
2023-01-13T09:52:37.212Z,97772.16
2023-01-13T09:55:10.700Z,97773.34
2023-01-13T09:57:38.864Z,97771.56
2023-01-13T10:00:18.887Z,97775.06
2023-01-13T10:03:18.220Z,97756.69
2023-01-13T10:05:54.526Z,97758.25
2023-01-13T10:08:26.808Z,97769.53
2023-01-13T10:10:57.769Z,97748.97
2023-01-13T10:13:28.161Z,97755.97
2023-01-13T10:16:13.740Z,97758.47
2023-01-13T10:18:57.948Z,97758.47
2023-01-13T10:21:57.359Z,97761.16
2023-01-13T10:24:43.159Z,97759.25
2023-01-13T10:27:21.254Z,97759.75
2023-01-13T10:29:51.349Z,97745.00
2023-01-13T10:32:20.270Z,97739.78
2023-01-13T10:34:50.248Z,97739.56
2023-01-13T10:37:23.169Z,97746.56
2023-01-13T10:39:56.037Z,97737.53
2023-01-13T10:42:24.288Z,97740.84
2023-01-13T10:44:53.718Z,97741.78
2023-01-13T10:47:28.771Z,97742.38
2023-01-13T10:50:03.727Z,97745.00
2023-01-13T10:52:34.701Z,97738.97
2023-01-13T10:55:03.972Z,97738.03
2023-01-13T10:57:36.900Z,97714.81
2023-01-13T11:03:13.096Z,97699.53
2023-01-13T11:05:49.157Z,97700.50
2023-01-13T11:08:19.377Z,97702.75
2023-01-13T11:10:50.915Z,97680.19
2023-01-13T11:13:25.527Z,97701.84
2023-01-13T11:16:00.832Z,97706.25
2023-01-13T11:18:40.982Z,97707.13
2023-01-13T11:21:19.877Z,97697.56
2023-01-13T11:23:52.972Z,97703.44
2023-01-13T11:26:27.263Z,97696.53
2023-01-13T11:29:08.148Z,97702.09
2023-01-13T11:31:43.973Z,97707.72
2023-01-13T11:34:28.011Z,97689.50
2023-01-13T11:37:00.368Z,97688.03
2023-01-13T11:39:44.162Z,97689.22
2023-01-13T11:42:21.527Z,97697.44
2023-01-13T11:45:05.210Z,97698.16
2023-01-13T11:47:36.150Z,97698.66
2023-01-13T11:50:17.222Z,97705.31
2023-01-13T11:53:09.547Z,97708.84
2023-01-13T11:55:54.183Z,97688.59
2023-01-13T12:01:45.592Z,97696.13
2023-01-13T12:04:28.359Z,97707.03
2023-01-13T12:07:14.512Z,97718.91
2023-01-13T12:10:00.613Z,97712.19
2023-01-13T12:12:43.022Z,97715.63
2023-01-13T12:15:35.827Z,97712.94
2023-01-13T12:18:26.696Z,97709.59
2023-01-13T12:21:13.412Z,97700.00
2023-01-13T12:23:54.614Z,97704.75
2023-01-13T12:26:23.485Z,97700.53
2023-01-13T12:28:57.707Z,97694.00
2023-01-13T12:31:28.520Z,97704.34
2023-01-13T12:34:15.996Z,97701.28
2023-01-13T12:37:02.514Z,97712.25
2023-01-13T12:39:50.248Z,97719.75
2023-01-13T12:42:27.031Z,97715.31
2023-01-13T12:45:22.642Z,97708.31
2023-01-13T12:47:50.831Z,97715.16
2023-01-13T12:50:43.188Z,97711.66
2023-01-13T12:53:34.778Z,97707.06
2023-01-13T12:56:39.362Z,97694.41
2023-01-13T12:59:34.941Z,97693.13
2023-01-13T13:02:31.873Z,97703.47
2023-01-13T13:05:16.688Z,97704.88
2023-01-13T13:07:48.380Z,97690.63
2023-01-13T13:27:17.095Z,97711.78
2023-01-13T13:35:42.612Z,97714.88
2023-01-13T13:41:22.398Z,97720.19
2023-01-13T13:43:51.588Z,97714.59
2023-01-13T13:46:28.481Z,97716.84
2023-01-13T13:48:56.406Z,97718.28
2023-01-13T13:51:31.973Z,97726.16
2023-01-13T13:53:59.766Z,97735.56
2023-01-13T13:56:32.151Z,97725.16
2023-01-13T13:59:01.288Z,97727.28
2023-01-13T14:01:34.952Z,97734.63
2023-01-13T14:04:05.826Z,97735.19
2023-01-13T14:06:34.122Z,97742.38
2023-01-13T14:09:03.274Z,97746.38
2023-01-13T14:11:33.417Z,97748.00
2023-01-13T14:14:04.237Z,97751.53
2023-01-13T14:16:33.873Z,97750.16
2023-01-13T14:19:02.228Z,97753.06
2023-01-13T14:21:30.797Z,97735.91
2023-01-13T14:24:02.244Z,97732.25
2023-01-13T14:26:31.773Z,97738.56
2023-01-13T14:29:03.116Z,97738.69
2023-01-13T14:31:32.839Z,97733.72
2023-01-13T14:34:30.544Z,97732.38
2023-01-13T14:36:51.351Z,97733.19
2023-01-13T14:39:33.076Z,97739.13
2023-01-13T14:42:00.615Z,97734.53
2023-01-13T14:44:33.221Z,97754.03
2023-01-13T14:47:04.467Z,97753.63
2023-01-13T14:49:37.365Z,97763.00
2023-01-13T14:52:15.650Z,97764.38
2023-01-13T14:54:45.963Z,97762.84
2023-01-13T14:57:24.411Z,97766.44
2023-01-13T15:00:04.779Z,97770.06
2023-01-13T15:02:38.691Z,97771.47
2023-01-13T15:05:45.942Z,97777.22
2023-01-13T15:08:28.869Z,97784.81
2023-01-13T15:11:00.160Z,97790.22
2023-01-13T15:13:36.047Z,97798.50
2023-01-13T15:16:13.271Z,97789.78
2023-01-13T15:18:40.965Z,97794.63
2023-01-13T15:21:09.641Z,97795.59
2023-01-13T15:23:38.046Z,97798.69
2023-01-13T15:26:20.441Z,97815.47
2023-01-13T15:28:49.634Z,97808.66
2023-01-13T15:31:19.883Z,97827.22
2023-01-13T15:33:47.930Z,97827.69
2023-01-13T15:36:27.328Z,97837.66
2023-01-13T15:38:55.560Z,97833.59
2023-01-13T15:41:23.803Z,97841.69
2023-01-13T15:43:51.380Z,97847.44
2023-01-13T15:46:20.699Z,97851.47
2023-01-13T15:48:53.106Z,97862.94
2023-01-13T15:51:22.504Z,97849.81
2023-01-13T15:53:50.322Z,97851.06
2023-01-13T15:56:24.357Z,97852.41
2023-01-13T15:58:52.565Z,97856.41
2023-01-13T16:01:22.773Z,97859.91
2023-01-13T16:03:50.535Z,97852.41
2023-01-13T16:06:20.883Z,97860.47
2023-01-13T16:08:48.391Z,97860.94
2023-01-13T16:11:16.059Z,97856.81
2023-01-13T16:13:43.633Z,97853.47
2023-01-13T16:16:19.131Z,97858.22
2023-01-13T16:18:48.519Z,97854.38
2023-01-13T16:21:16.127Z,97861.81
2023-01-13T16:23:43.758Z,97868.25
2023-01-13T16:26:20.711Z,97874.91
2023-01-13T16:28:49.049Z,97881.34
2023-01-13T16:31:21.610Z,97877.91
2023-01-13T16:33:50.837Z,97871.06
2023-01-13T16:36:20.368Z,97874.47
2023-01-13T16:38:49.189Z,97893.88
2023-01-13T16:41:16.839Z,97898.13
2023-01-13T16:43:44.686Z,97893.00
2023-01-13T16:46:21.843Z,97898.28
2023-01-13T16:48:52.689Z,97903.41
2023-01-13T16:51:21.250Z,97914.03
2023-01-13T16:53:49.339Z,97924.72
2023-01-13T16:56:24.402Z,97935.81
2023-01-13T16:58:53.674Z,97943.19
2023-01-13T17:01:25.143Z,97954.72
2023-01-13T17:03:54.956Z,97955.91
2023-01-13T17:06:26.744Z,97961.97
2023-01-13T17:08:54.502Z,97957.78
2023-01-13T17:11:22.144Z,97963.97
2023-01-13T17:13:49.677Z,97964.13
2023-01-13T17:16:20.764Z,97968.28
2023-01-13T17:18:48.490Z,97968.22
2023-01-13T17:21:18.018Z,97966.84
2023-01-13T17:23:45.676Z,97970.66
2023-01-13T17:26:31.887Z,97967.91
2023-01-13T17:29:01.520Z,97971.72
2023-01-13T17:31:29.378Z,97979.88
2023-01-13T17:33:57.286Z,97980.91
2023-01-13T17:36:26.319Z,97982.31
2023-01-13T17:38:55.063Z,97987.59
2023-01-13T17:41:23.207Z,97984.31
2023-01-13T17:43:51.697Z,97985.84
2023-01-13T17:46:20.744Z,97981.59
2023-01-13T17:48:49.947Z,97986.78
2023-01-13T17:51:18.741Z,97985.53
2023-01-13T17:53:47.679Z,97979.66
2023-01-13T17:56:17.294Z,97981.94
2023-01-13T17:58:44.999Z,97980.97
2023-01-13T18:01:15.300Z,97987.94
2023-01-13T18:03:43.245Z,97984.06
2023-01-13T18:06:15.804Z,97985.63
2023-01-13T18:08:43.424Z,97997.00
2023-01-13T18:11:12.565Z,97998.72
2023-01-13T18:13:40.334Z,97998.03
2023-01-13T18:16:10.718Z,97996.31
2023-01-13T18:18:39.617Z,98000.88
2023-01-13T18:21:13.429Z,98003.28
2023-01-13T18:23:41.069Z,98007.94
2023-01-13T18:26:16.626Z,98010.16
2023-01-13T18:28:44.337Z,98020.06
2023-01-13T18:31:11.976Z,98012.06
2023-01-13T18:33:39.560Z,98020.81
2023-01-13T18:36:08.312Z,98021.00
2023-01-13T18:38:36.184Z,98026.59
2023-01-13T18:41:05.122Z,98029.00
2023-01-13T18:43:34.052Z,98026.59
2023-01-13T18:46:01.623Z,98035.38
2023-01-13T18:48:30.105Z,98027.06
2023-01-13T18:50:57.977Z,98039.00
2023-01-13T18:53:25.516Z,98045.63
2023-01-13T18:55:53.143Z,98049.44
2023-01-13T18:58:20.808Z,98066.47
2023-01-13T19:00:49.834Z,98065.28
2023-01-13T19:03:17.479Z,98072.69
2023-01-13T19:05:45.100Z,98083.53
2023-01-13T19:08:12.779Z,98084.97
2023-01-13T19:10:40.318Z,98086.78
2023-01-13T19:13:07.936Z,98085.22
2023-01-13T19:15:36.239Z,98086.94
2023-01-13T19:18:05.379Z,98095.72
2023-01-13T19:20:32.991Z,98099.44
2023-01-13T19:23:00.577Z,98094.78
2023-01-13T19:25:28.212Z,98098.41
2023-01-13T19:27:55.843Z,98098.22
2023-01-13T19:30:23.407Z,98096.00
2023-01-13T19:32:51.021Z,98096.16
2023-01-13T19:35:20.049Z,98099.28
2023-01-13T19:37:47.584Z,98091.94
2023-01-13T19:40:15.746Z,98113.56
2023-01-13T19:42:44.173Z,98126.47
2023-01-13T19:45:13.457Z,98135.72
2023-01-13T19:47:41.083Z,98139.06
2023-01-13T19:50:10.198Z,98148.88
2023-01-13T19:52:39.157Z,98145.00
2023-01-13T19:55:07.400Z,98138.28
2023-01-13T19:57:35.406Z,98140.38
2023-01-13T20:00:03.961Z,98137.38
2023-01-13T20:02:31.680Z,98141.69
2023-01-13T20:05:01.529Z,98140.72
2023-01-13T20:07:31.497Z,98144.78
2023-01-13T20:10:00.635Z,98146.03
2023-01-13T20:12:28.604Z,98143.56
2023-01-13T20:14:56.405Z,98144.78
2023-01-13T20:17:24.419Z,98129.13
2023-01-13T20:19:54.574Z,98129.78
2023-01-13T20:22:22.116Z,98128.72
2023-01-13T20:24:49.623Z,98128.81
2023-01-13T20:27:18.560Z,98127.38
2023-01-13T20:29:46.206Z,98123.50
2023-01-13T20:32:13.792Z,98121.38
2023-01-13T20:34:41.373Z,98130.13
2023-01-13T20:37:08.937Z,98134.34
2023-01-13T20:39:36.522Z,98136.19
2023-01-13T20:42:04.149Z,98150.63
2023-01-13T20:44:33.112Z,98149.88
2023-01-13T20:47:01.311Z,98159.94
2023-01-13T20:49:29.286Z,98158.53
2023-01-13T20:51:57.541Z,98153.38
2023-01-13T20:54:26.112Z,98147.97
2023-01-13T20:56:53.738Z,98143.16
2023-01-13T20:59:21.319Z,98154.06
2023-01-13T21:01:50.181Z,98154.72
2023-01-13T21:04:17.852Z,98160.16
2023-01-13T21:06:45.482Z,98157.94
2023-01-13T21:09:13.067Z,98159.28
2023-01-13T21:11:40.583Z,98160.78
2023-01-13T21:14:13.910Z,98165.50
2023-01-13T21:16:41.562Z,98163.75
2023-01-13T21:19:10.589Z,98162.88
2023-01-13T21:21:38.269Z,98160.34
2023-01-13T21:24:06.089Z,98155.47
2023-01-13T21:26:33.593Z,98142.28
2023-01-13T21:29:01.137Z,98151.09
2023-01-13T21:31:28.916Z,98144.22
2023-01-13T21:33:58.371Z,98143.00
2023-01-13T21:36:28.124Z,98147.06
2023-01-13T21:38:59.155Z,98147.34
2023-01-13T21:41:26.811Z,98143.72
2023-01-13T21:43:54.309Z,98154.25
2023-01-13T21:46:23.614Z,98147.97
2023-01-13T21:48:51.261Z,98138.50
2023-01-13T21:51:18.865Z,98140.72
2023-01-13T21:53:47.824Z,98148.81
2023-01-13T21:56:15.475Z,98149.47
2023-01-13T21:58:42.998Z,98154.50
2023-01-13T22:01:11.882Z,98153.88
2023-01-13T22:03:40.243Z,98162.22
2023-01-13T22:06:07.942Z,98168.81
2023-01-13T22:08:35.607Z,98168.50
2023-01-13T22:11:04.846Z,98170.00
2023-01-13T22:13:32.478Z,98177.00
2023-01-13T22:16:02.447Z,98167.69
2023-01-13T22:18:30.074Z,98183.22
2023-01-13T22:21:00.145Z,98185.09
2023-01-13T22:23:28.530Z,98187.31
2023-01-13T22:26:00.841Z,98184.91
2023-01-13T22:28:30.459Z,98181.31
2023-01-13T22:30:58.104Z,98180.44
2023-01-13T22:33:25.713Z,98170.59
2023-01-13T22:35:56.496Z,98173.75
2023-01-13T22:38:24.158Z,98166.22
2023-01-13T22:40:59.278Z,98179.34
2023-01-13T22:43:27.509Z,98184.13
2023-01-13T22:46:00.956Z,98173.34
2023-01-13T22:48:29.015Z,98178.47
2023-01-13T22:50:56.878Z,98167.59
2023-01-13T22:53:24.563Z,98175.38
2023-01-13T22:55:56.129Z,98171.34
2023-01-13T22:58:24.582Z,98171.25
2023-01-13T23:00:52.837Z,98169.28
2023-01-13T23:03:22.835Z,98170.25
2023-01-13T23:05:55.804Z,98171.25
2023-01-13T23:08:23.437Z,98169.38
2023-01-13T23:10:51.326Z,98166.78
2023-01-13T23:13:18.855Z,98171.94
2023-01-13T23:15:46.400Z,98171.16
2023-01-13T23:18:14.003Z,98157.91
2023-01-13T23:20:42.939Z,98166.25
2023-01-13T23:23:10.441Z,98157.16
2023-01-13T23:25:38.062Z,98158.91
2023-01-13T23:28:05.643Z,98147.16
2023-01-13T23:30:33.279Z,98143.59
2023-01-13T23:33:00.906Z,98148.47
2023-01-13T23:35:28.484Z,98144.59
2023-01-13T23:37:57.394Z,98144.28
2023-01-13T23:40:24.923Z,98144.69
2023-01-13T23:42:52.446Z,98143.50
2023-01-13T23:45:19.970Z,98143.16
2023-01-13T23:47:47.565Z,98139.50
2023-01-13T23:50:15.697Z,98138.28
2023-01-13T23:52:43.265Z,98137.16
2023-01-13T23:55:12.221Z,98138.28
2023-01-13T23:57:39.931Z,98142.84
